Flight Track Log - Related Links

Times and Time Zones

All times are in EDT time to prevent confusion due to time zone crossing. See the SWA3143 flight status page for this flight to view local times or setup timezone preferences in your user account.

Time Position Orientation Groundspeed Altitude Reporting Facility
EDT Latitude Longitude Course Direction KTS MPH feet Rate Location/Type
Sat 08:19:31 PM 30.2103 -97.8403 303° West 283 326 10,000  Level Houston Center
Sat 08:20:32 PM 30.2317 -97.9497 283° West 325 374 12,600 2,878 Climbing Houston Center
Sat 08:21:34 PM 30.2553 -98.0569 284° West 341 392 15,900 2,829 Climbing Houston Center
Sat 08:22:35 PM 30.2783 -98.1653 284° West 347 399 18,400 2,410 Climbing Houston Center
Sat 08:23:00 PM 30.4130 -97.8885 276° West  Level FlightAware Approximate
Sat 08:23:36 PM 30.3047 -98.2872 284° West 362 417 20,800  Level Houston Center
Sat 08:24:38 PM 30.3261 -98.3925 283° West 369 425 23,400 2,195 Climbing Houston Center
Sat 08:25:39 PM 30.3503 -98.5078 284° West 366 421 25,300 1,967 Climbing Houston Center
Sat 08:26:40 PM 30.3750 -98.6261 284° West 373 429 27,400 2,066 Climbing Houston Center
Sat 08:27:41 PM 30.3992 -98.7422 284° West 367 422 29,500 2,115 Climbing Houston Center
Sat 08:28:42 PM 30.4236 -98.8539 284° West 355 409 31,700 1,854 Climbing Houston Center
Sat 08:29:44 PM 30.4469 -98.9619 284° West 344 396 33,300 1,122 Climbing Houston Center
Sat 08:30:45 PM 30.4689 -99.0711 283° West 344 396 34,000 344 Climbing Houston Center
Sat 08:31:46 PM 30.4947 -99.1953 284° West 357 411 34,000  Level Houston Center
Sat 08:32:47 PM 30.5169 -99.3058 283° West 355 409 34,000  Level Houston Center
Sat 08:33:48 PM 30.5400 -99.4169 284° West 356 410 34,000  Level Houston Center
Sat 08:34:49 PM 30.5625 -99.5281 283° West 357 411 34,000  Level Houston Center
Sat 08:35:50 PM 30.5842 -99.6375 283° West 352 405 34,000  Level Houston Center
Sat 08:36:52 PM 30.6056 -99.7478 283° West 351 404 34,000  Level Houston Center
Sat 08:37:53 PM 30.6272 -99.8536 283° West 347 399 34,000  Level Houston Center
Sat 08:38:54 PM 30.6522 -99.9850 283° West 348 400 34,000  Level Houston Center
Sat 08:39:55 PM 30.6753 -100.0928 284° West 345 397 34,000  Level Houston Center
Sat 08:40:56 PM 30.6950 -100.2011 282° West 345 397 34,000  Level Houston Center
Sat 08:41:57 PM 30.7175 -100.3069 284° West 341 392 34,000  Level Houston Center
Sat 08:42:58 PM 30.7381 -100.4156 282° West 343 395 34,000  Level Houston Center
Sat 08:43:59 PM 30.7592 -100.5219 283° West 340 391 34,000  Level Houston Center
Sat 08:45:00 PM 30.7800 -100.6317 282° West 351 404 34,000  Level Houston Center
Sat 08:46:01 PM 30.8006 -100.7372 283° West 332 382 34,000 -49 Level Houston Center
Sat 08:47:02 PM 30.8219 -100.8472 283° West 343 395 33,900  Descending Houston Center
Sat 08:48:03 PM 30.8464 -100.9792 282° West 348 400 34,000 49 Climbing Houston Center
Sat 08:49:04 PM 30.8675 -101.0869 283° West 341 392 34,000  Level Houston Center
Sat 08:50:05 PM 30.8878 -101.1972 282° West 347 399 34,000  Level Houston Center
Sat 08:51:06 PM 30.9100 -101.3081 283° West 350 403 34,000  Level Houston Center
Sat 08:52:07 PM 30.9272 -101.4139 281° West 352 405 34,000  Level Houston Center
Sat 08:52:27 PM 30.9364 -101.4553 284° West 350 403 34,000  Level Albuquerque Center
Sat 08:53:28 PM 30.9556 -101.5647 282° West 346 398 34,000 -49 Level Albuquerque Center
Sat 08:54:29 PM 30.9756 -101.6733 282° West 344 396 33,900  Descending Albuquerque Center
Sat 08:55:31 PM 30.9944 -101.7792 282° West 339 390 34,000  Climbing Albuquerque Center
Sat 08:56:32 PM 31.0142 -101.8839 282° West 334 384 33,900  Descending Albuquerque Center
Sat 08:57:33 PM 31.0328 -101.9894 282° West 331 381 34,000 49 Climbing Albuquerque Center
Sat 08:58:34 PM 31.0522 -102.0956 282° West 332 382 34,000  Level Albuquerque Center
Sat 08:59:36 PM 31.0697 -102.1997 281° West 331 381 34,000  Level Albuquerque Center
Sat 09:00:37 PM 31.0931 -102.3253 282° West 330 380 34,000  Level Albuquerque Center
Sat 09:01:38 PM 31.1108 -102.4294 281° West 328 377 34,000  Level Albuquerque Center
Sat 09:02:39 PM 31.1289 -102.5319 282° West 324 373 34,000  Level Albuquerque Center
Sat 09:03:40 PM 31.1472 -102.6350 282° West 315 362 34,000  Level Albuquerque Center
Sat 09:04:41 PM 31.1650 -102.7375 281° West 319 367 34,000 -49 Level Albuquerque Center
Sat 09:05:43 PM 31.1828 -102.8397 282° West 321 369 33,900  Descending Albuquerque Center
Sat 09:06:44 PM 31.2008 -102.9408 282° West 319 367 34,000 49 Climbing Albuquerque Center
Sat 09:07:45 PM 31.2181 -103.0442 281° West 323 372 34,000  Level Albuquerque Center
Sat 09:08:46 PM 31.2358 -103.1475 281° West 326 375 34,000  Level Albuquerque Center
Sat 09:09:47 PM 31.2533 -103.2539 281° West 331 381 34,000  Level Albuquerque Center
Sat 09:10:48 PM 31.2717 -103.3589 282° West 331 381 34,000  Level Albuquerque Center
Sat 09:11:49 PM 31.2900 -103.4664 281° West 335 386 34,000  Level Albuquerque Center
Sat 09:12:50 PM 31.3072 -103.5761 280° West 341 392 34,000  Level Albuquerque Center
Sat 09:13:51 PM 31.3289 -103.7053 281° West 339 390 34,000  Level Albuquerque Center
Sat 09:14:53 PM 31.3467 -103.8069 282° West 345 397 34,000  Level Albuquerque Center
Sat 09:15:54 PM 31.3653 -103.9164 281° West 345 397 34,000  Level Albuquerque Center
Sat 09:16:55 PM 31.3842 -104.0269 281° West 347 399 34,000  Level Albuquerque Center
Sat 09:17:56 PM 31.4017 -104.1381 280° West 348 400 34,000  Level Albuquerque Center
Sat 09:18:57 PM 31.4200 -104.2497 281° West 350 403 34,000  Level Albuquerque Center
Sat 09:19:58 PM 31.4386 -104.3614 281° West 351 404 34,000 -49 Level Albuquerque Center
Sat 09:20:59 PM 31.4581 -104.4958 280° West 351 404 33,900  Descending Albuquerque Center
Sat 09:22:00 PM 31.4683 -104.6083 276° West 351 404 34,000 49 Climbing Albuquerque Center
Sat 09:23:01 PM 31.4806 -104.7217 277° West 352 405 34,000  Level Albuquerque Center
Sat 09:24:02 PM 31.4928 -104.8311 277° West 345 397 34,000 -885 Level Albuquerque Center
Sat 09:25:03 PM 31.5031 -104.9375 276° West 334 384 32,200 -2,410 Descending Albuquerque Center
Sat 09:26:04 PM 31.5142 -105.0425 277° West 328 377 29,100 -2,803 Descending Albuquerque Center
Sat 09:27:05 PM 31.5261 -105.1542 277° West 342 394 26,500 -2,508 Descending Albuquerque Center
Sat 09:28:06 PM 31.5358 -105.2658 276° West 347 399 24,000 -2,410 Descending Albuquerque Center
Sat 09:29:07 PM 31.5458 -105.3733 276° West 338 389 21,600 -2,508 Descending Albuquerque Center
Sat 09:30:08 PM 31.5583 -105.4939 277° West 313 360 18,900 -2,485 Descending Albuquerque Center
Sat 09:30:46 PM 31.5625 -105.5567 274° West 321 369 17,500 -2,459 Descending Albuquerque Center
Sat 09:31:09 PM 31.5686 -105.6019 279° West 337 388 16,400 -2,444 Descending Albuquerque Center
Sat 09:31:40 PM 31.5747 -105.6558 278° West 335 386 15,300 -2,262 Descending Albuquerque Center
Sat 09:32:10 PM 31.5792 -105.7081 276° West 332 382 14,100 -2,418 Descending Albuquerque Center
Sat 09:32:47 PM 31.5847 -105.7781 275° West 327 376 12,600 -2,262 Descending Albuquerque Center
Sat 09:33:11 PM 31.5928 -105.8117 286° West 324 373 11,800 -2,066 Descending Albuquerque Center
Sat 09:33:48 PM 31.6214 -105.8711 299° West 313 360 10,500 -1,574 Descending Albuquerque Center
Sat 09:34:12 PM 31.6367 -105.8981 304° West 306 352 10,200 -1,000 Descending Albuquerque Center
Sat 09:34:48 PM 31.6658 -105.9497 304° West 281 323 9,500 -1,082 Descending Albuquerque Center
Sat 09:35:13 PM 31.6806 -105.9714 309° West 275 316 9,100 -1,091 Descending Albuquerque Center
Sat 09:35:43 PM 31.7031 -106.0128 303° West 245 282 8,500 -1,082 Descending Albuquerque Center
Sat 09:36:14 PM 31.7139 -106.0397 295° West 241 277 8,000 -985 Descending Albuquerque Center
Sat 09:36:50 PM 31.7278 -106.0892 288° West 223 257 7,400 -689 Descending Albuquerque Center
Sat 09:37:15 PM 31.7361 -106.1089 296° West 225 259 7,300 -100 Descending Albuquerque Center
Sat 09:37:50 PM 31.7492 -106.1461 292° West 188 216 7,300 -98 Level Albuquerque Center
Sat 09:38:16 PM 31.7553 -106.1639 292° West 186 214 7,200 -655 Descending Albuquerque Center
Sat 09:38:45 PM 31.7672 -106.1992 292° West 183 211 6,700 -1,000 Descending Albuquerque Center
Sat 09:39:16 PM 31.7756 -106.2231 292° West 193 222 6,200 -1,000 Descending Albuquerque Center
Sat 09:39:45 PM 31.7864 -106.2569 291° West 189 217 5,700 -885 Descending Albuquerque Center
Sat 09:40:17 PM 31.7928 -106.2761 291° West 178 205 5,300 -689 Descending Albuquerque Center
Sat 09:40:46 PM 31.7967 -106.3017 280° West 134 154 5,000 -689 Descending Albuquerque Center
Sat 09:41:18 PM 31.7992 -106.3192 280° West 138 159 4,600 -806 Descending Albuquerque Center
Sat 09:41:53 PM 31.7997 -106.3533 271° West 131 151 4,100 -689 Descending Albuquerque Center
Sat 09:42:19 PM 31.8014 -106.3664 279° West 134 154 3,900 -462 Descending Albuquerque Center
Sat 09:44:00 PM 31.8000 -106.3667 North  Level FlightAware Approximate
Sat 09:51:00 PM 31.8072 -106.3764 North  Level Estimated
Sat 09:52:00 PM 31.8072 -106.3764 North  Level Estimated
Sat 09:53:00 PM 31.8072 -106.3764 North  Level Estimated
Sat 09:54:00 PM 31.8072 -106.3764 North  Level Estimated

Login

Don't have an account? Register now (free) for customized features, flight alerts, and more!